Time;durP1;ratioP1;P1;durP2;ratioP2;P2;SDS_P1;SDS_P2;PMS_P1;PMS_P2;Temp;Humidity;BMP_temperature;BMP_pressure;BME280_temperature;BME280_humidity;BME280_pressure;Samples;Min_cycle;Max_cycle;Signal;HPM_P1;HPM_P2
2022/02/06 00:01:11;;;;;;;8.50;1.60;;;21.90;17.30;;;;;;5068169;28;20466;-64
2022/02/06 00:03:38;;;;;;;6.85;1.83;;;21.80;17.50;;;;;;5067824;28;20081;-61
2022/02/06 00:06:04;;;;;;;6.00;1.83;;;21.60;17.60;;;;;;5070616;28;20127;-64
2022/02/06 00:08:31;;;;;;;8.15;2.40;;;21.60;17.70;;;;;;5073567;28;20065;-62
2022/02/06 00:10:58;;;;;;;9.15;1.95;;;21.50;17.80;;;;;;5070549;28;20582;-63
2022/02/06 00:13:24;;;;;;;3.25;1.80;;;21.40;17.80;;;;;;5071003;28;20073;-63
2022/02/06 00:15:51;;;;;;;5.57;1.65;;;21.30;17.80;;;;;;5071923;28;20076;-64
2022/02/06 00:18:17;;;;;;;5.57;2.05;;;21.30;18.00;;;;;;5070747;28;20204;-65
2022/02/06 00:20:56;;;;;;;7.78;2.50;;;21.30;17.80;;;;;;5071816;28;20535;-65
2022/02/06 00:23:26;;;;;;;5.65;2.33;;;21.40;17.50;;;;;;5072337;28;20502;-62
2022/02/06 00:30:58;;;;;;;8.45;2.60;;;21.00;17.60;;;;;;5072418;28;20073;-63
2022/02/06 00:43:26;;;;;;;7.25;2.60;;;20.70;18.60;;;;;;5071973;28;20065;-65
2022/02/06 00:45:53;;;;;;;7.15;3.15;;;20.30;18.50;;;;;;5070728;28;20069;-62
2022/02/06 00:48:28;;;;;;;21.27;3.80;;;20.10;18.70;;;;;;5069843;28;20535;-63
2022/02/06 00:51:18;;;;;;;17.45;3.40;;;20.00;18.80;;;;;;5071111;28;20434;-64
2022/02/06 00:53:44;;;;;;;21.00;3.42;;;19.90;18.70;;;;;;5070647;28;20152;-65
2022/02/06 00:56:11;;;;;;;87.28;7.97;;;19.70;19.00;;;;;;5072084;28;20077;-63
2022/02/06 00:58:38;;;;;;;47.97;5.65;;;19.60;19.30;;;;;;5070643;28;20101;-63
2022/02/06 01:01:05;;;;;;;34.22;5.30;;;19.50;19.20;;;;;;5070801;28;20547;-64
2022/02/06 01:03:32;;;;;;;35.20;4.57;;;19.50;19.70;;;;;;5071420;28;20527;-65
2022/02/06 01:05:59;;;;;;;58.42;6.68;;;19.30;20.50;;;;;;5069477;28;20076;-64
2022/02/06 01:08:25;;;;;;;138.32;12.60;;;19.10;20.60;;;;;;5072698;28;20073;-66
2022/02/06 01:10:52;;;;;;;140.65;13.98;;;19.00;21.40;;;;;;5071972;28;20573;-66
2022/02/06 01:13:35;;;;;;;70.18;9.18;;;18.80;21.50;;;;;;5070631;28;20122;-63
2022/02/06 01:16:15;;;;;;;102.03;11.02;;;18.50;21.60;;;;;;5071447;28;20152;-64
2022/02/06 01:18:50;;;;;;;69.63;8.05;;;18.40;22.00;;;;;;5069790;28;20111;-65
2022/02/06 01:24:12;;;;;;;68.13;8.75;;;18.10;22.70;;;;;;5071286;28;20171;-63
2022/02/06 01:26:43;;;;;;;65.57;7.50;;;17.80;23.10;;;;;;5070739;28;20077;-64
2022/02/06 01:29:29;;;;;;;52.00;7.47;;;17.70;23.70;;;;;;5069687;28;20116;-63
2022/02/06 01:32:02;;;;;;;60.45;8.00;;;17.50;24.00;;;;;;5070040;28;20154;-62
2022/02/06 01:37:47;;;;;;;60.50;7.53;;;17.20;24.80;;;;;;5070142;28;20628;-64
2022/02/06 01:40:17;;;;;;;35.90;5.03;;;17.00;25.00;;;;;;5068485;28;20604;-63
2022/02/06 01:42:58;;;;;;;36.65;5.65;;;16.90;25.40;;;;;;5070393;28;20152;-62
2022/02/06 01:45:54;;;;;;;29.55;5.15;;;16.80;25.80;;;;;;5070315;28;20156;-62
2022/02/06 02:10:28;;;;;;;26.05;4.80;;;15.60;27.50;;;;;;5069193;28;19960;-64
2022/02/06 02:18:36;;;;;;;56.30;7.90;;;15.50;27.70;;;;;;5070123;28;20034;-65
2022/02/06 02:21:18;;;;;;;36.45;7.45;;;15.30;27.70;;;;;;5069570;28;20552;-63
2022/02/06 02:47:39;;;;;;;50.63;11.52;;;14.40;28.90;;;;;;5068696;28;19956;-68
2022/02/06 02:50:13;;;;;;;43.38;11.23;;;14.30;29.10;;;;;;5069110;28;20077;-64
2022/02/06 02:52:51;;;;;;;50.88;14.00;;;14.30;29.30;;;;;;5068300;28;20158;-66
2022/02/06 03:03:20;;;;;;;73.78;16.20;;;14.00;29.40;;;;;;5070075;28;20489;-64
2022/02/06 03:05:50;;;;;;;64.30;15.55;;;14.00;29.70;;;;;;5068041;28;20073;-64
2022/02/06 03:08:17;;;;;;;80.60;18.58;;;13.90;30.00;;;;;;5068537;28;20164;-66
2022/02/06 03:10:44;;;;;;;77.30;18.38;;;13.80;30.10;;;;;;5068330;28;20222;-64
2022/02/06 03:13:14;;;;;;;71.75;19.75;;;13.80;30.20;;;;;;5067898;28;20065;-65
2022/02/06 03:18:17;;;;;;;80.25;19.02;;;13.70;30.30;;;;;;5069724;28;20112;-63
2022/02/06 03:20:45;;;;;;;70.25;19.95;;;13.70;30.50;;;;;;5067996;28;20108;-63
2022/02/06 03:23:13;;;;;;;84.43;20.23;;;13.60;30.60;;;;;;5069658;28;20092;-64
2022/02/06 03:26:03;;;;;;;65.18;19.77;;;13.60;30.90;;;;;;5068171;28;20072;-64
2022/02/06 03:28:27;;;;;;;78.72;20.25;;;13.50;30.90;;;;;;5067053;28;20092;-65
2022/02/06 03:30:53;;;;;;;105.60;24.13;;;13.40;31.10;;;;;;5066365;28;20180;-62
2022/02/06 03:33:20;;;;;;;97.65;24.98;;;13.40;31.00;;;;;;5066700;28;20168;-62
2022/02/06 03:35:47;;;;;;;116.72;25.60;;;13.40;30.90;;;;;;5066627;28;20069;-62
2022/02/06 03:38:14;;;;;;;97.03;25.20;;;13.30;30.50;;;;;;5067744;28;20220;-66
2022/02/06 03:40:53;;;;;;;102.88;27.25;;;13.30;30.30;;;;;;5066570;28;20080;-66
2022/02/06 03:43:27;;;;;;;104.57;26.10;;;13.20;30.40;;;;;;5066278;28;20606;-63
2022/02/06 03:46:04;;;;;;;108.50;25.85;;;13.20;30.60;;;;;;5068796;28;20069;-65
2022/02/06 03:48:45;;;;;;;;;;;13.20;30.90;;;;;;5068072;28;20102;-62
2022/02/06 03:51:21;;;;;;;98.05;26.20;;;13.10;31.00;;;;;;5052364;28;19980;-63
2022/02/06 03:53:52;;;;;;;93.18;27.17;;;13.00;31.30;;;;;;5066194;28;20126;-63
2022/02/06 03:56:20;;;;;;;109.35;27.23;;;13.00;31.10;;;;;;5067330;28;20120;-65
2022/02/06 03:58:47;;;;;;;99.65;25.85;;;12.90;31.10;;;;;;5068184;28;20073;-62
2022/02/06 04:01:14;;;;;;;99.53;26.88;;;12.90;31.30;;;;;;5067728;28;20481;-64
2022/02/06 04:03:41;;;;;;;102.70;28.75;;;12.90;31.60;;;;;;5067764;28;20122;-64
2022/02/06 04:06:07;;;;;;;109.68;28.23;;;12.90;31.80;;;;;;5066821;28;20167;-63
2022/02/06 04:08:36;;;;;;;109.55;27.00;;;12.90;32.20;;;;;;5068119;28;20104;-65
2022/02/06 04:11:07;;;;;;;101.90;25.90;;;12.90;33.60;;;;;;5068192;28;20096;-61
2022/02/06 04:13:38;;;;;;;89.57;27.25;;;12.80;33.40;;;;;;5067233;28;20069;-63
2022/02/06 04:16:11;;;;;;;131.38;30.63;;;12.70;32.50;;;;;;5067416;28;20160;-64
2022/02/06 04:18:50;;;;;;;108.65;29.73;;;12.70;33.00;;;;;;5067272;28;20108;-65
2022/02/06 04:21:17;;;;;;;108.28;30.15;;;12.80;34.10;;;;;;5066972;28;20116;-63
2022/02/06 04:23:43;;;;;;;;;;;12.60;33.30;;;;;;5069443;28;20159;-63
2022/02/06 04:26:09;;;;;;;102.25;29.25;;;12.60;34.10;;;;;;5067280;28;19964;-65
2022/02/06 04:28:35;;;;;;;;;;;12.60;33.90;;;;;;5067413;28;20791;-64
2022/02/06 04:31:02;;;;;;;113.13;30.10;;;12.40;33.50;;;;;;5067098;28;19984;-65
2022/02/06 04:33:28;;;;;;;110.03;30.75;;;12.40;33.70;;;;;;5067521;28;20092;-66
2022/02/06 04:35:58;;;;;;;;;;;12.30;33.80;;;;;;5067726;28;20075;-63
2022/02/06 04:46:38;;;;;;;101.65;31.40;;;12.30;34.70;;;;;;5064800;28;20431;-65
2022/02/06 05:16:28;;;;;;;119.88;32.35;;;11.80;34.80;;;;;;4980479;28;20152;-62
2022/02/06 05:22:03;;;;;;;113.30;31.88;;;11.80;34.60;;;;;;5009447;28;20523;-65
2022/02/06 05:24:44;;;;;;;121.32;35.63;;;11.70;34.70;;;;;;5008601;28;20658;-64
2022/02/06 05:30:02;;;;;;;115.07;33.75;;;11.50;34.70;;;;;;5033012;28;20578;-63
2022/02/06 05:32:58;;;;;;;129.93;34.58;;;11.50;34.80;;;;;;5050933;28;20120;-65
2022/02/06 05:35:18;;;;;;;120.82;36.03;;;11.50;35.10;;;;;;5069507;28;20073;-64
2022/02/06 05:37:44;;;;;;;132.93;36.25;;;11.50;35.60;;;;;;5068280;28;20077;-62
2022/02/06 05:40:11;;;;;;;110.22;36.35;;;11.40;35.50;;;;;;5066164;28;20069;-62
2022/02/06 05:42:37;;;;;;;126.32;37.85;;;11.40;35.50;;;;;;5067828;28;20077;-63
2022/02/06 05:45:04;;;;;;;;;;;11.30;35.70;;;;;;5066275;28;20092;-63
2022/02/06 05:47:33;;;;;;;124.13;36.53;;;11.30;35.90;;;;;;5067326;28;19957;-64
2022/02/06 05:49:59;;;;;;;148.90;38.47;;;11.30;35.80;;;;;;5066205;28;20160;-63
2022/02/06 05:52:26;;;;;;;139.65;38.95;;;11.30;35.80;;;;;;5068768;28;20108;-64
2022/02/06 05:54:52;;;;;;;144.05;39.58;;;11.30;35.80;;;;;;5069101;28;20118;-62
2022/02/06 05:57:19;;;;;;;110.93;36.10;;;11.30;36.00;;;;;;5066537;28;20127;-64
2022/02/06 05:59:45;;;;;;;134.30;39.08;;;11.30;36.00;;;;;;5068905;28;20073;-63
2022/02/06 06:02:12;;;;;;;;;;;11.30;36.10;;;;;;5065752;28;20079;-63
2022/02/06 06:04:38;;;;;;;153.48;38.05;;;11.20;36.80;;;;;;5065771;28;19957;-65
2022/02/06 06:07:04;;;;;;;;;;;11.20;36.20;;;;;;5066464;28;20083;-61
2022/02/06 06:09:31;;;;;;;135.82;38.15;;;11.20;36.60;;;;;;5068197;28;19965;-63
2022/02/06 06:11:58;;;;;;;139.57;39.72;;;11.10;36.70;;;;;;5066890;28;20088;-64
2022/02/06 06:14:28;;;;;;;;;;;11.10;36.80;;;;;;5064500;28;20112;-63
2022/02/06 06:16:58;;;;;;;134.82;39.65;;;11.00;36.90;;;;;;5065831;28;19981;-62
2022/02/06 06:19:25;;;;;;;141.32;41.00;;;11.00;37.10;;;;;;5082276;28;20294;-65
2022/02/06 06:21:57;;;;;;;147.07;41.83;;;11.10;37.30;;;;;;5064418;28;20078;-64
2022/02/06 06:24:25;;;;;;;143.73;44.15;;;11.10;37.10;;;;;;5064178;28;20172;-66
2022/02/06 06:26:53;;;;;;;142.75;44.55;;;11.10;37.40;;;;;;5065940;28;20074;-62
2022/02/06 06:29:19;;;;;;;125.78;42.17;;;11.00;37.70;;;;;;5066277;28;20542;-62
2022/02/06 06:31:47;;;;;;;130.80;43.72;;;11.00;37.40;;;;;;5065850;28;20103;-62
2022/02/06 06:34:13;;;;;;;142.60;44.53;;;10.90;37.50;;;;;;5062484;28;20131;-63
2022/02/06 06:36:39;;;;;;;;;;;10.80;38.20;;;;;;5066833;28;20085;-65
2022/02/06 06:39:07;;;;;;;151.10;43.78;;;10.70;37.90;;;;;;5066636;28;20000;-62
2022/02/06 06:41:33;;;;;;;150.88;45.78;;;10.80;38.90;;;;;;5067239;28;20447;-62
2022/02/06 06:43:59;;;;;;;140.52;44.65;;;10.80;38.20;;;;;;5061046;28;20108;-64
2022/02/06 06:46:26;;;;;;;131.32;43.92;;;10.80;38.20;;;;;;5065024;28;20457;-65
2022/02/06 06:48:52;;;;;;;148.93;44.53;;;10.70;38.30;;;;;;5068022;28;20073;-63
2022/02/06 06:51:18;;;;;;;;;;;10.70;38.40;;;;;;5069725;28;20184;-65
2022/02/06 06:53:48;;;;;;;164.60;46.83;;;10.80;38.60;;;;;;5068523;28;19964;-63
2022/02/06 06:56:42;;;;;;;176.77;57.70;;;10.70;38.70;;;;;;5068665;28;20156;-64
2022/02/06 06:59:26;;;;;;;181.60;59.20;;;10.70;38.90;;;;;;5066911;28;20192;-63
2022/02/06 07:02:04;;;;;;;188.23;63.85;;;10.70;39.10;;;;;;5068581;28;20136;-63
2022/02/06 07:04:31;;;;;;;186.65;67.15;;;10.70;39.00;;;;;;5068944;28;20077;-64
2022/02/06 07:06:57;;;;;;;187.40;65.63;;;10.70;39.10;;;;;;5069927;28;20097;-65
2022/02/06 07:09:24;;;;;;;190.65;66.43;;;10.70;39.00;;;;;;5070365;28;20085;-65
2022/02/06 07:11:50;;;;;;;;;;;10.70;38.80;;;;;;5070275;28;20139;-66
2022/02/06 07:14:16;;;;;;;193.48;62.72;;;10.60;38.70;;;;;;5068959;28;19976;-63
2022/02/06 07:16:42;;;;;;;150.88;59.15;;;10.60;38.90;;;;;;5068259;28;20151;-65
2022/02/06 07:19:09;;;;;;;;;;;10.60;38.80;;;;;;5069007;28;20138;-65
2022/02/06 07:21:39;;;;;;;149.68;51.50;;;10.60;38.10;;;;;;5070307;28;20064;-64
2022/02/06 07:24:06;;;;;;;132.57;45.67;;;10.60;37.40;;;;;;5070390;28;20519;-64
2022/02/06 07:26:33;;;;;;;145.63;46.58;;;10.60;36.90;;;;;;5068221;28;20097;-61
2022/02/06 07:29:01;;;;;;;147.52;43.20;;;10.70;37.00;;;;;;5068919;28;21438;-65
2022/02/06 07:31:28;;;;;;;145.65;45.85;;;10.70;37.30;;;;;;5068730;28;20454;-63
2022/02/06 07:33:55;;;;;;;116.47;41.20;;;10.70;37.10;;;;;;5070235;28;20435;-63
2022/02/06 07:36:21;;;;;;;122.03;40.60;;;10.70;36.80;;;;;;5069897;28;20097;-65
2022/02/06 07:38:47;;;;;;;;;;;10.60;36.70;;;;;;5069458;28;20068;-64
2022/02/06 07:41:14;;;;;;;134.05;41.42;;;10.60;35.80;;;;;;5068270;28;19957;-61
2022/02/06 07:43:40;;;;;;;125.35;43.45;;;10.60;36.20;;;;;;5068142;28;20215;-61
2022/02/06 07:46:10;;;;;;;111.38;41.92;;;10.50;35.90;;;;;;5067993;28;20077;-61
2022/02/06 07:48:37;;;;;;;114.20;39.63;;;10.50;36.10;;;;;;5067722;28;20767;-63
2022/02/06 07:51:04;;;;;;;115.22;41.08;;;10.50;36.60;;;;;;5066710;28;20097;-63
2022/02/06 07:53:31;;;;;;;108.10;38.25;;;10.40;36.60;;;;;;5067242;28;20089;-62
2022/02/06 07:55:58;;;;;;;110.30;39.05;;;10.40;36.40;;;;;;5050935;28;20082;-62
2022/02/06 07:58:24;;;;;;;;;;;10.40;36.50;;;;;;5068237;28;20153;-62
2022/02/06 08:00:50;;;;;;;129.02;42.30;;;10.30;36.60;;;;;;5068077;28;19983;-62
2022/02/06 08:03:16;;;;;;;121.72;40.38;;;10.30;37.10;;;;;;5067837;28;20087;-64
2022/02/06 08:05:43;;;;;;;123.68;40.03;;;10.20;36.80;;;;;;5068377;28;20143;-63
2022/02/06 08:08:14;;;;;;;;;;;10.20;37.00;;;;;;5069099;28;20521;-64
2022/02/06 08:10:41;;;;;;;133.60;38.20;;;10.20;36.60;;;;;;5066556;28;20454;-63
2022/02/06 08:13:21;;;;;;;98.90;36.80;;;10.20;36.50;;;;;;5068061;28;20099;-61
2022/02/06 08:15:47;;;;;;;113.82;37.05;;;10.20;37.50;;;;;;5066994;28;20496;-64
2022/02/06 08:18:13;;;;;;;;;;;10.20;37.70;;;;;;5068965;28;20114;-64
2022/02/06 08:20:41;;;;;;;112.53;37.85;;;10.20;38.20;;;;;;5066487;28;20099;-63
2022/02/06 08:23:08;;;;;;;107.05;34.78;;;10.10;37.90;;;;;;5067064;28;20075;-63
2022/02/06 08:25:34;;;;;;;112.80;35.33;;;10.10;37.10;;;;;;5067234;28;20069;-62
2022/02/06 08:28:02;;;;;;;102.15;35.58;;;10.00;37.40;;;;;;5071993;28;20160;-64
2022/02/06 08:30:32;;;;;;;108.72;34.70;;;10.00;37.20;;;;;;5071652;28;20100;-64
2022/02/06 08:32:59;;;;;;;125.57;38.50;;;10.00;37.70;;;;;;5071864;28;20092;-63
2022/02/06 08:35:25;;;;;;;122.70;35.70;;;10.00;38.00;;;;;;5072091;28;20079;-64
2022/02/06 08:37:52;;;;;;;117.82;35.78;;;10.00;37.80;;;;;;5071770;28;20164;-65
2022/02/06 08:40:18;;;;;;;;;;;9.90;37.60;;;;;;5073647;28;20073;-62
2022/02/06 08:42:46;;;;;;;102.68;36.92;;;9.80;37.70;;;;;;5072940;28;19961;-63
2022/02/06 08:45:13;;;;;;;132.30;38.70;;;9.80;38.60;;;;;;5071408;28;20081;-62
2022/02/06 08:47:42;;;;;;;111.55;35.92;;;9.90;38.70;;;;;;5071334;28;20164;-63
2022/02/06 08:50:09;;;;;;;103.20;36.22;;;9.90;38.90;;;;;;5071364;28;20072;-62
2022/02/06 08:52:36;;;;;;;97.60;33.83;;;9.80;38.50;;;;;;5071146;28;20093;-64
2022/02/06 08:55:04;;;;;;;;;;;9.80;38.50;;;;;;5072992;28;20103;-64
2022/02/06 08:57:31;;;;;;;101.78;33.88;;;9.70;38.60;;;;;;5071453;28;19956;-62
2022/02/06 08:59:57;;;;;;;;;;;9.70;38.70;;;;;;5071249;28;20195;-61
2022/02/06 09:02:24;;;;;;;109.95;34.83;;;9.70;39.10;;;;;;5072456;28;19956;-63
2022/02/06 09:04:50;;;;;;;104.22;33.25;;;9.60;38.90;;;;;;5071034;28;20073;-58
2022/02/06 09:07:18;;;;;;;;;;;9.70;38.80;;;;;;5055123;28;20093;-64
2022/02/06 09:09:49;;;;;;;113.20;35.30;;;9.60;38.70;;;;;;5071845;28;19980;-62
2022/02/06 09:12:17;;;;;;;108.15;35.53;;;9.60;39.40;;;;;;5070369;28;20085;-62
2022/02/06 09:14:45;;;;;;;112.72;34.67;;;9.60;39.10;;;;;;5070096;28;20085;-63
2022/02/06 09:17:12;;;;;;;109.90;33.28;;;9.60;39.90;;;;;;5070688;28;20105;-62
2022/02/06 09:19:39;;;;;;;112.07;33.33;;;9.60;39.70;;;;;;5071438;28;20081;-64
2022/02/06 09:22:10;;;;;;;97.38;31.52;;;9.50;40.10;;;;;;5054836;28;20164;-63
2022/02/06 09:24:37;;;;;;;106.82;32.67;;;9.50;39.70;;;;;;5069132;28;20080;-62
2022/02/06 09:27:05;;;;;;;105.32;32.40;;;9.50;39.70;;;;;;5070694;28;20089;-62
2022/02/06 09:29:31;;;;;;;95.60;30.83;;;9.40;39.60;;;;;;5069447;28;20073;-63
2022/02/06 09:37:08;;;;;;;113.93;30.92;;;9.40;39.70;;;;;;5071780;28;20111;-63
2022/02/06 09:39:39;;;;;;;107.47;31.00;;;9.30;39.60;;;;;;5070323;28;20180;-63
2022/02/06 09:42:07;;;;;;;94.68;30.63;;;9.30;40.60;;;;;;5070465;28;20130;-60
2022/02/06 09:44:35;;;;;;;97.35;30.40;;;9.30;40.30;;;;;;5070456;28;20164;-65
2022/02/06 09:47:02;;;;;;;88.10;29.10;;;9.30;41.20;;;;;;5053625;28;20089;-62
2022/02/06 09:49:32;;;;;;;96.82;29.95;;;9.20;40.50;;;;;;5052950;28;20143;-64
2022/02/06 09:51:59;;;;;;;93.32;31.50;;;9.30;40.80;;;;;;5053652;28;20096;-63
2022/02/06 09:54:27;;;;;;;81.60;29.25;;;9.20;41.20;;;;;;5069897;28;20069;-61
2022/02/06 09:56:58;;;;;;;108.10;34.22;;;9.20;41.10;;;;;;5070060;28;20077;-63
2022/02/06 09:59:26;;;;;;;98.00;30.85;;;9.20;42.30;;;;;;5070056;28;20589;-63
2022/02/06 10:01:58;;;;;;;105.88;31.90;;;9.20;42.30;;;;;;5069868;28;20073;-64
2022/02/06 10:04:30;;;;;;;96.05;32.08;;;9.20;42.30;;;;;;5070470;28;20077;-64
2022/02/06 10:07:12;;;;;;;92.97;31.08;;;9.00;42.00;;;;;;5069683;28;20073;-64
2022/02/06 10:09:44;;;;;;;105.20;31.08;;;9.00;42.50;;;;;;5070348;28;20076;-64
2022/02/06 10:12:13;;;;;;;102.55;31.17;;;9.00;42.40;;;;;;5068554;28;20180;-60
2022/02/06 10:14:40;;;;;;;93.32;30.13;;;9.00;43.00;;;;;;5069745;28;20101;-63
2022/02/06 10:17:06;;;;;;;104.88;29.52;;;8.90;41.90;;;;;;5067998;28;20196;-66
2022/02/06 10:19:36;;;;;;;94.80;27.70;;;8.90;42.00;;;;;;5069866;28;20114;-63
2022/02/06 10:22:24;;;;;;;91.13;27.52;;;8.90;41.90;;;;;;5069271;28;20093;-65
2022/02/06 10:25:08;;;;;;;82.80;27.42;;;8.90;42.10;;;;;;5069534;28;20535;-65
2022/02/06 10:27:57;;;;;;;85.60;27.42;;;8.90;41.90;;;;;;5068863;28;20168;-63
2022/02/06 10:30:38;;;;;;;98.13;28.88;;;8.80;42.40;;;;;;5069333;28;20127;-63
2022/02/06 10:33:16;;;;;;;90.32;28.92;;;8.70;42.40;;;;;;5071251;28;20085;-63
2022/02/06 10:36:01;;;;;;;84.75;27.63;;;8.70;42.80;;;;;;5069398;28;20507;-65
2022/02/06 10:38:29;;;;;;;92.05;27.95;;;8.70;42.50;;;;;;5069896;28;20159;-63
2022/02/06 10:41:28;;;;;;;78.10;26.90;;;8.70;42.20;;;;;;5068208;28;20084;-63
2022/02/06 10:43:58;;;;;;;92.13;26.38;;;8.70;42.60;;;;;;5007350;28;20172;-63
2022/02/06 10:46:26;;;;;;;89.40;25.75;;;8.70;43.20;;;;;;4991956;28;20086;-64
2022/02/06 10:48:58;;;;;;;94.25;26.35;;;8.70;42.90;;;;;;4990812;28;20202;-64
2022/02/06 10:51:39;;;;;;;87.20;24.95;;;8.70;42.90;;;;;;5007699;28;20165;-63
2022/02/06 10:54:08;;;;;;;96.38;26.42;;;8.70;42.70;;;;;;4990694;28;20078;-62
2022/02/06 10:56:40;;;;;;;85.30;25.95;;;8.70;42.50;;;;;;4992162;28;20149;-61
2022/02/06 10:59:09;;;;;;;96.85;26.20;;;8.70;42.90;;;;;;4991282;28;20173;-61
2022/02/06 11:01:40;;;;;;;92.65;26.40;;;8.60;42.70;;;;;;5008620;28;20075;-64
2022/02/06 11:04:44;;;;;;;104.20;25.42;;;8.60;42.70;;;;;;4992534;28;20090;-64
2022/02/06 11:07:19;;;;;;;105.00;26.33;;;8.60;42.60;;;;;;5005516;28;20114;-63
2022/02/06 11:09:47;;;;;;;89.38;24.67;;;8.60;42.70;;;;;;4977222;28;20114;-65
2022/02/06 11:12:21;;;;;;;91.00;26.55;;;8.50;42.90;;;;;;4975862;28;20174;-59
2022/02/06 11:14:59;;;;;;;79.57;23.42;;;8.60;43.00;;;;;;5007837;28;20078;-63
2022/02/06 11:17:28;;;;;;;72.88;21.60;;;8.40;42.60;;;;;;5008033;28;20118;-62
2022/02/06 11:20:07;;;;;;;79.30;21.80;;;8.50;42.60;;;;;;5042978;28;20081;-62
2022/02/06 11:22:35;;;;;;;85.43;21.70;;;8.50;42.20;;;;;;5068671;28;20077;-63
2022/02/06 11:25:05;;;;;;;79.28;21.25;;;8.60;42.00;;;;;;5052007;28;20428;-64
2022/02/06 11:27:33;;;;;;;85.40;22.85;;;8.50;41.90;;;;;;5069551;28;20588;-65
2022/02/06 11:30:01;;;;;;;81.63;20.38;;;8.50;42.00;;;;;;5067530;28;20073;-63
2022/02/06 11:32:28;;;;;;;70.63;20.48;;;8.50;41.80;;;;;;5068060;28;20111;-63
2022/02/06 11:34:57;;;;;;;63.45;20.80;;;8.40;41.60;;;;;;5051898;28;20076;-62
2022/02/06 11:44:14;;;;;;;65.90;19.73;;;8.40;41.90;;;;;;5069884;28;20080;-63
2022/02/06 11:47:07;;;;;;;54.65;18.88;;;8.30;42.10;;;;;;5064370;28;20095;-64
2022/02/06 11:49:44;;;;;;;76.53;19.98;;;8.30;42.60;;;;;;5068514;28;20073;-62
2022/02/06 11:52:11;;;;;;;75.57;19.83;;;8.30;42.80;;;;;;5068278;28;20535;-62
2022/02/06 11:54:56;;;;;;;59.92;18.05;;;8.30;43.20;;;;;;5051503;28;20084;-62
2022/02/06 11:57:26;;;;;;;59.00;19.35;;;8.30;43.20;;;;;;5067603;28;20160;-62
2022/02/06 12:00:07;;;;;;;64.50;18.45;;;8.20;43.10;;;;;;5067674;28;20176;-63
2022/02/06 12:02:39;;;;;;;55.92;17.40;;;8.10;42.90;;;;;;5071267;28;20076;-63
2022/02/06 12:05:29;;;;;;;57.83;19.15;;;8.10;42.80;;;;;;5071818;28;20077;-62
2022/02/06 12:08:03;;;;;;;62.55;17.65;;;8.10;43.00;;;;;;5040398;28;20096;-63
2022/02/06 12:10:33;;;;;;;54.17;16.80;;;8.10;43.00;;;;;;5056614;28;20116;-62
2022/02/06 12:13:32;;;;;;;67.53;17.98;;;8.10;43.20;;;;;;5070621;28;20085;-63
2022/02/06 12:16:02;;;;;;;65.68;16.73;;;8.10;43.80;;;;;;5071355;28;20160;-64
2022/02/06 12:18:31;;;;;;;60.75;16.83;;;8.00;43.10;;;;;;5038652;28;20104;-64
2022/02/06 12:21:19;;;;;;;54.97;15.18;;;8.00;43.10;;;;;;5070959;28;20069;-63
2022/02/06 12:23:54;;;;;;;54.67;15.50;;;8.00;43.10;;;;;;5071678;28;20069;-62
2022/02/06 12:28:59;;;;;;;52.85;14.68;;;8.10;43.20;;;;;;5072568;28;20429;-64
2022/02/06 12:31:28;;;;;;;54.65;14.55;;;8.00;42.90;;;;;;5071556;28;20093;-63
2022/02/06 12:39:32;;;;;;;42.17;12.70;;;8.00;43.40;;;;;;5073480;28;20096;-63
2022/02/06 12:41:59;;;;;;;42.58;11.68;;;8.00;43.10;;;;;;5071579;28;20081;-64
2022/02/06 12:44:28;;;;;;;47.38;11.75;;;8.00;43.50;;;;;;5054103;28;20084;-64
2022/02/06 12:47:01;;;;;;;45.13;11.63;;;7.90;43.30;;;;;;5070831;28;20080;-63
2022/02/06 12:49:30;;;;;;;32.92;10.38;;;8.00;44.20;;;;;;5072675;28;20416;-63
2022/02/06 12:51:58;;;;;;;44.97;11.05;;;7.90;43.50;;;;;;5054179;28;20105;-62
2022/02/06 12:54:26;;;;;;;53.40;11.23;;;7.90;43.10;;;;;;5070123;28;20069;-63
2022/02/06 12:56:58;;;;;;;43.15;11.18;;;7.90;43.00;;;;;;5054830;28;20069;-63
2022/02/06 12:59:27;;;;;;;42.15;10.93;;;7.90;43.10;;;;;;5072233;28;20092;-63
2022/02/06 13:01:55;;;;;;;47.75;11.27;;;7.90;43.00;;;;;;5071031;28;20079;-65
2022/02/06 13:04:32;;;;;;;41.92;9.82;;;7.90;43.40;;;;;;5054579;28;20571;-63
2022/02/06 13:07:04;;;;;;;39.65;10.25;;;7.90;43.40;;;;;;5072433;28;20545;-65
2022/02/06 13:09:35;;;;;;;36.13;10.05;;;7.90;43.50;;;;;;5071861;28;20426;-63
2022/02/06 13:12:09;;;;;;;36.08;9.68;;;7.90;44.10;;;;;;5072114;28;20143;-63
2022/02/06 13:20:52;;;;;;;32.03;8.27;;;7.80;43.70;;;;;;5072381;28;20511;-64
2022/02/06 13:24:06;;;;;;;;;;;7.60;43.60;;;;;;5073209;28;20073;-65
2022/02/06 13:26:20;;;;;;;43.83;9.75;;;7.60;43.70;;;;;;5066591;28;20000;-63
2022/02/06 13:29:04;;;;;;;31.95;9.45;;;7.60;43.70;;;;;;5055250;28;20495;-65
2022/02/06 13:39:10;;;;;;;35.40;9.38;;;7.50;44.70;;;;;;5072311;28;20065;-65
2022/02/06 13:41:36;;;;;;;28.40;8.57;;;7.50;44.90;;;;;;5070412;28;20077;-63
2022/02/06 13:44:12;;;;;;;25.63;9.20;;;7.50;45.30;;;;;;5070544;28;20135;-65
2022/02/06 13:46:41;;;;;;;32.17;10.18;;;7.50;45.10;;;;;;5070225;28;20079;-65
2022/02/06 13:49:08;;;;;;;61.78;10.88;;;7.50;45.40;;;;;;5070390;28;20073;-64
2022/02/06 13:51:44;;;;;;;45.00;11.13;;;7.40;44.90;;;;;;5069859;28;20088;-65
2022/02/06 13:54:10;;;;;;;33.75;10.30;;;7.40;45.50;;;;;;5070354;28;20182;-64
2022/02/06 13:56:38;;;;;;;39.78;10.45;;;7.30;45.00;;;;;;5070487;28;20527;-64
2022/02/06 13:59:09;;;;;;;41.45;10.50;;;7.30;44.80;;;;;;5052942;28;20097;-64
2022/02/06 14:01:47;;;;;;;42.92;11.10;;;7.30;45.70;;;;;;5070113;28;20077;-65
2022/02/06 14:04:21;;;;;;;41.45;9.98;;;7.30;45.70;;;;;;5052796;28;20176;-65
2022/02/06 14:06:54;;;;;;;42.67;11.48;;;7.20;45.50;;;;;;5071175;28;20096;-65
2022/02/06 14:09:31;;;;;;;30.90;10.35;;;7.20;45.90;;;;;;5038590;28;20072;-65
2022/02/06 14:11:58;;;;;;;36.45;11.38;;;7.20;45.70;;;;;;5053298;28;20127;-63
2022/02/06 14:14:26;;;;;;;50.33;10.77;;;7.20;45.50;;;;;;5069359;28;20115;-61
2022/02/06 14:16:57;;;;;;;48.00;12.43;;;7.20;46.40;;;;;;5069659;28;20084;-65
2022/02/06 14:19:45;;;;;;;42.00;11.35;;;7.20;46.40;;;;;;5070134;28;20065;-61
2022/02/06 14:22:23;;;;;;;48.05;11.60;;;7.20;46.90;;;;;;5069774;28;20171;-59
2022/02/06 14:24:51;;;;;;;41.97;11.65;;;7.20;47.10;;;;;;5068200;28;20081;-64
2022/02/06 14:27:42;;;;;;;30.08;9.70;;;7.30;46.80;;;;;;5069527;28;20546;-63
2022/02/06 14:30:12;;;;;;;39.85;10.48;;;7.30;46.40;;;;;;5070697;28;20281;-64
2022/02/06 14:33:03;;;;;;;40.30;10.68;;;7.20;46.10;;;;;;5069694;28;20775;-64
2022/02/06 14:35:47;;;;;;;36.90;10.73;;;7.20;46.50;;;;;;5069811;28;20076;-64
2022/02/06 14:38:32;;;;;;;41.92;11.50;;;7.10;46.80;;;;;;5069500;28;20165;-64
2022/02/06 14:43:57;;;;;;;57.00;13.45;;;7.00;46.90;;;;;;5070220;28;20076;-63
2022/02/06 14:46:24;;;;;;;39.70;12.35;;;7.00;47.40;;;;;;5069524;28;20080;-62
2022/02/06 14:48:51;;;;;;;49.15;12.80;;;7.10;47.50;;;;;;5069219;28;20076;-64
2022/02/06 14:51:18;;;;;;;;;;;7.10;47.50;;;;;;5069249;28;20096;-63
2022/02/06 14:53:45;;;;;;;50.30;13.25;;;7.20;46.70;;;;;;5070354;28;19957;-63
2022/02/06 14:56:12;;;;;;;;;;;7.20;46.70;;;;;;5069480;28;20081;-64
2022/02/06 14:58:39;;;;;;;;;;;7.20;47.00;;;;;;5052384;28;20418;-64
2022/02/06 15:01:06;;;;;;;48.97;13.55;;;7.10;46.80;;;;;;5068752;28;19957;-63
2022/02/06 15:03:32;;;;;;;53.83;13.15;;;7.20;46.80;;;;;;5067486;28;20073;-62
2022/02/06 15:05:58;;;;;;;;;;;7.30;46.60;;;;;;5069442;28;20451;-66
2022/02/06 15:08:25;;;;;;;62.45;13.60;;;7.30;45.70;;;;;;5068313;28;20015;-63
2022/02/06 15:10:51;;;;;;;;;;;7.40;45.60;;;;;;5069737;28;20129;-66
2022/02/06 15:13:18;;;;;;;51.93;13.03;;;7.40;45.30;;;;;;5068372;28;19995;-65
2022/02/06 15:15:49;;;;;;;39.70;11.75;;;7.50;45.20;;;;;;5069967;28;20089;-64
2022/02/06 15:18:35;;;;;;;46.53;12.45;;;7.50;45.00;;;;;;5068697;28;20108;-62
2022/02/06 15:21:03;;;;;;;47.08;13.85;;;7.70;44.90;;;;;;5069880;28;20489;-64
2022/02/06 15:23:29;;;;;;;48.88;12.20;;;7.80;45.50;;;;;;5069890;28;20079;-62
2022/02/06 15:25:56;;;;;;;44.90;12.30;;;7.90;44.60;;;;;;5069520;28;20180;-64
2022/02/06 15:28:23;;;;;;;;;;;8.00;44.30;;;;;;5070111;28;20101;-61
2022/02/06 15:30:49;;;;;;;39.33;10.10;;;8.10;44.30;;;;;;5067238;28;19979;-63
2022/02/06 15:33:16;;;;;;;45.35;11.52;;;8.20;43.80;;;;;;5068353;28;20176;-62
2022/02/06 15:35:43;;;;;;;;;;;8.30;43.70;;;;;;5068481;28;20072;-62
2022/02/06 15:38:10;;;;;;;41.72;11.13;;;8.40;43.50;;;;;;5068227;28;19957;-63